Time;durP1;ratioP1;P1;durP2;ratioP2;P2;SDS_P1;SDS_P2;PMS_P1;PMS_P2;Temp;Humidity;BMP_temperature;BMP_pressure;BME280_temperature;BME280_humidity;BME280_pressure;Samples;Min_cycle;Max_cycle;Signal;HPM_P1;HPM_P2
2021/08/01 00:00:31;;;;;;;11.37;7.99;;;;;;;34.29;30.94;98709.69;385107;107;1985951;-76
2021/08/01 00:01:38;;;;;;;16.41;8.73;;;;;;;34.12;31.01;98705.55;364646;110;1962003;-77
2021/08/01 00:02:44;;;;;;;12.27;8.43;;;;;;;34.12;31.08;98704.75;364157;110;1963073;-75
2021/08/01 00:03:56;;;;;;;13.91;8.16;;;;;;;34.27;31.07;98705.66;384328;106;2072091;-74
2021/08/01 00:05:05;;;;;;;10.31;7.59;;;;;;;34.09;31.21;98697.13;301537;109;2400099;-76
2021/08/01 00:06:10;;;;;;;11.68;8.22;;;;;;;34.13;31.18;98703.55;363371;110;1962004;-76
2021/08/01 00:07:22;;;;;;;13.62;8.42;;;;;;;34.25;31.13;98703.26;392688;104;2073010;-76
2021/08/01 00:08:28;;;;;;;12.60;8.16;;;;;;;34.09;31.19;98692.31;368339;110;1970033;-74
2021/08/01 00:09:34;;;;;;;13.44;8.36;;;;;;;34.13;31.20;98698.73;366845;108;1962018;-75
2021/08/01 00:10:48;;;;;;;12.56;8.83;;;;;;;34.23;31.23;98697.23;340432;104;2569996;-75
2021/08/01 00:11:53;;;;;;;11.98;7.98;;;;;;;34.27;31.07;98698.08;374284;106;1962008;-76
2021/08/01 00:13:06;;;;;;;13.14;8.07;;;;;;;34.43;30.98;98688.55;396593;104;1987002;-76
2021/08/01 00:14:18;;;;;;;11.35;8.29;;;;;;;34.48;30.93;98696.59;398252;104;1964955;-76
2021/08/01 00:15:43;;;;;;;12.12;8.03;;;;;;;34.44;30.82;98690.17;381735;105;1962071;-75
2021/08/01 00:16:49;;;;;;;13.81;7.97;;;;;;;34.42;30.81;98696.16;340317;105;2742968;-75
2021/08/01 00:17:55;;;;;;;11.23;7.82;;;;;;;34.43;30.80;98700.59;363697;105;1963076;-75
2021/08/01 00:19:00;;;;;;;11.07;7.64;;;;;;;34.43;30.81;98697.80;365131;107;1961976;-76
2021/08/01 00:20:13;;;;;;;13.72;8.36;;;;;;;34.58;30.82;98701.52;371025;109;2071827;-76
2021/08/01 00:21:26;;;;;;;13.67;8.64;;;;;;;34.66;30.72;98702.36;350652;104;2801019;-75
2021/08/01 00:22:50;;;;;;;14.24;8.38;;;;;;;34.52;30.78;98706.66;373008;107;1962944;-76
2021/08/01 00:24:03;;;;;;;11.09;8.06;;;;;;;34.68;30.73;98706.39;388969;104;1962013;-76
2021/08/01 00:25:09;;;;;;;11.09;7.75;;;;;;;34.59;30.70;98705.94;371666;109;1969983;-76
2021/08/01 00:26:33;;;;;;;12.07;7.92;;;;;;;34.58;30.74;98707.92;340364;105;2645397;-76
2021/08/01 00:27:39;;;;;;;12.84;8.26;;;;;;;34.64;30.67;98708.38;346715;107;2008003;-76
2021/08/01 00:28:45;;;;;;;12.41;7.98;;;;;;;34.68;30.62;98708.39;377283;107;1961895;-77
2021/08/01 00:29:50;;;;;;;12.42;8.19;;;;;;;34.74;30.58;98698.41;362685;107;1962010;-76
2021/08/01 00:31:02;;;;;;;12.51;8.56;;;;;;;34.93;30.54;98700.94;395153;104;1987009;-82
2021/08/01 00:32:09;;;;;;;14.35;8.36;;;;;;;34.88;30.40;98706.09;374273;107;1961933;-81
2021/08/01 00:33:15;;;;;;;11.56;7.58;;;;;;;34.89;30.39;98705.70;374888;107;1962006;-80
2021/08/01 00:34:22;;;;;;;11.36;7.87;;;;;;;34.86;30.43;98703.69;368342;108;1961871;-81
2021/08/01 00:35:34;;;;;;;12.60;8.11;;;;;;;35.07;30.33;98696.58;388308;106;1985989;-77
2021/08/01 00:36:41;;;;;;;11.92;8.19;;;;;;;34.92;30.34;98695.70;369763;109;1964001;-76
2021/08/01 00:37:54;;;;;;;13.64;7.94;;;;;;;35.19;30.09;98701.86;395571;104;1968099;-75
2021/08/01 00:38:59;;;;;;;12.59;8.05;;;;;;;34.87;30.35;98702.48;376268;107;1962991;-76
2021/08/01 00:40:12;;;;;;;12.92;8.58;;;;;;;34.99;30.37;98698.55;392937;104;2073036;-76
2021/08/01 00:41:18;;;;;;;11.84;7.95;;;;;;;34.84;30.41;98706.08;378393;105;1961964;-75
2021/08/01 00:42:42;;;;;;;12.36;8.14;;;;;;;34.85;30.45;98704.07;371310;107;1962012;-76
2021/08/01 00:43:55;;;;;;;20.00;9.19;;;;;;;35.01;30.41;98712.97;394875;104;1961908;-76
2021/08/01 00:45:02;;;;;;;14.01;8.49;;;;;;;34.88;30.44;98709.72;332271;107;2822007;-74
2021/08/01 00:46:07;;;;;;;15.57;8.68;;;;;;;34.89;30.44;98705.70;366884;106;1963033;-77
2021/08/01 00:47:19;;;;;;;15.92;8.92;;;;;;;34.98;30.47;98705.34;372978;108;2071109;-75
2021/08/01 00:48:27;;;;;;;13.82;8.99;;;;;;;34.79;30.56;98704.44;351779;112;1969073;-76
2021/08/01 00:49:40;;;;;;;12.82;8.83;;;;;;;34.92;30.50;98704.92;382770;106;2071847;-75
2021/08/01 00:50:45;;;;;;;12.96;8.56;;;;;;;34.80;30.53;98703.27;364729;110;1962024;-76
2021/08/01 00:52:11;;;;;;;11.68;8.58;;;;;;;34.78;30.58;98704.85;314725;111;2222994;-76
2021/08/01 00:53:25;;;;;;;11.83;8.34;;;;;;;34.82;30.79;98702.85;388976;104;1987490;-77
2021/08/01 00:54:34;;;;;;;11.85;7.77;;;;;;;34.69;30.74;98707.19;354199;108;1962066;-76
2021/08/01 00:55:46;;;;;;;13.87;8.01;;;;;;;34.74;30.87;98704.81;376730;101;2040055;-76
2021/08/01 00:57:00;;;;;;;13.95;8.62;;;;;;;34.80;30.83;98703.27;392875;104;1986070;-76
2021/08/01 00:58:07;;;;;;;11.82;8.01;;;;;;;34.77;30.65;98697.61;374293;106;1961832;-76
2021/08/01 00:59:13;;;;;;;12.28;8.12;;;;;;;34.79;30.57;98700.84;299790;107;2446052;-76
2021/08/01 01:01:46;;;;;;;12.64;8.87;;;;;;;34.79;30.73;98707.25;401185;104;1985954;-75
2021/08/01 01:03:03;;;;;;;14.66;8.46;;;;;;;34.73;30.76;98711.63;337006;104;2350965;-77
2021/08/01 01:04:46;;;;;;;14.27;8.19;;;;;;;34.64;30.92;98701.94;387614;104;1985917;-77
2021/08/01 01:06:18;;;;;;;19.23;8.72;;;;;;;34.48;30.99;98705.84;371713;107;1964978;-77
2021/08/01 01:07:53;;;;;;;13.53;8.46;;;;;;;34.43;31.21;98694.16;397335;104;1985986;-77
2021/08/01 01:09:43;;;;;;;13.50;8.15;;;;;;;34.27;31.37;98702.85;369976;107;1962051;-77
2021/08/01 01:11:00;;;;;;;14.28;8.53;;;;;;;34.30;31.67;98697.30;375953;108;1987010;-77
2021/08/01 01:12:11;;;;;;;12.97;7.78;;;;;;;34.15;31.51;98701.97;313657;112;2875996;-76
2021/08/01 01:13:37;;;;;;;13.28;9.37;;;;;;;34.14;31.51;98697.56;337696;113;1963043;-78
2021/08/01 01:14:54;;;;;;;14.46;8.55;;;;;;;34.25;31.62;98692.05;394681;104;1985980;-76
2021/08/01 01:16:06;;;;;;;14.25;8.69;;;;;;;34.22;31.65;98690.02;385940;106;1985880;-76
2021/08/01 01:17:16;;;;;;;14.60;8.53;;;;;;;34.11;31.70;98689.94;368509;110;1964139;-76
2021/08/01 01:18:31;;;;;;;16.33;8.93;;;;;;;34.07;31.79;98693.90;362681;111;1961900;-75
2021/08/01 01:19:53;;;;;;;11.96;8.49;;;;;;;34.14;31.92;98691.16;396755;104;1978941;-76
2021/08/01 01:21:14;;;;;;;12.47;8.93;;;;;;;34.03;31.93;98688.24;381470;105;1961981;-75
2021/08/01 01:22:41;;;;;;;10.58;7.83;;;;;;;34.15;31.84;98690.76;353395;104;2715174;-75
2021/08/01 01:24:03;;;;;;;17.20;8.61;;;;;;;34.05;31.87;98694.24;347273;115;1961984;-75
2021/08/01 01:25:25;;;;;;;15.79;8.93;;;;;;;34.14;31.89;98691.97;406625;101;1986975;-75
2021/08/01 01:26:44;;;;;;;12.93;7.44;;;;;;;34.07;32.12;98691.09;384693;106;1985881;-75
2021/08/01 01:28:03;;;;;;;14.14;9.21;;;;;;;34.00;31.97;98699.40;370535;107;1960767;-75
2021/08/01 01:29:19;;;;;;;15.27;8.88;;;;;;;34.17;31.98;98697.99;386129;101;1985892;-75
2021/08/01 01:30:28;;;;;;;13.82;8.45;;;;;;;34.01;32.00;98698.23;338250;107;2705801;-76
2021/08/01 01:32:01;;;;;;;12.72;8.45;;;;;;;34.05;32.12;98691.44;382107;104;1960716;-76
2021/08/01 01:33:17;;;;;;;14.97;8.29;;;;;;;33.99;32.33;98690.19;374746;108;1984830;-77
2021/08/01 01:34:39;;;;;;;12.15;8.41;;;;;;;33.90;32.30;98686.92;354605;114;1960768;-76
2021/08/01 01:35:55;;;;;;;14.08;8.27;;;;;;;34.10;32.30;98693.12;395164;104;1985748;-76
2021/08/01 01:37:03;;;;;;;14.20;8.80;;;;;;;34.02;32.19;98699.83;377016;103;1960686;-76
2021/08/01 01:38:17;;;;;;;13.37;8.39;;;;;;;34.19;32.14;98696.41;391661;104;1985841;-76
2021/08/01 01:39:42;;;;;;;13.48;8.16;;;;;;;34.15;31.94;98689.96;370124;109;1960900;-76
2021/08/01 01:40:57;;;;;;;14.05;8.01;;;;;;;34.07;32.14;98694.70;370769;107;1961854;-76
2021/08/01 01:42:12;;;;;;;13.28;8.17;;;;;;;34.10;32.33;98691.11;387741;106;1962032;-76
2021/08/01 01:43:25;;;;;;;12.71;8.78;;;;;;;34.02;32.17;98686.61;364657;109;1970858;-75
2021/08/01 01:44:38;;;;;;;16.61;9.58;;;;;;;34.14;32.17;98694.77;385721;106;1985932;-76
2021/08/01 01:45:44;;;;;;;13.98;8.72;;;;;;;33.98;32.20;98693.38;364778;110;1960745;-75
2021/08/01 01:46:52;;;;;;;12.53;8.56;;;;;;;33.97;32.25;98686.97;365353;111;1962086;-76
2021/08/01 01:47:59;;;;;;;12.84;8.99;;;;;;;33.91;32.34;98688.52;331869;110;2048804;-76
2021/08/01 01:49:13;;;;;;;13.47;8.51;;;;;;;34.01;32.40;98681.41;386239;106;1985930;-76
2021/08/01 01:50:26;;;;;;;13.46;9.03;;;;;;;33.94;32.40;98680.14;395174;104;1986022;-75
2021/08/01 01:51:51;;;;;;;13.77;8.35;;;;;;;33.89;32.40;98682.49;377690;106;1961988;-76
2021/08/01 01:53:06;;;;;;;13.73;8.41;;;;;;;34.02;32.63;98680.21;360049;104;2577000;-76
2021/08/01 01:54:12;;;;;;;15.89;8.84;;;;;;;33.90;32.49;98668.11;367907;108;1966007;-76
2021/08/01 01:55:38;;;;;;;12.71;8.38;;;;;;;33.92;32.58;98671.31;318220;108;2562008;-75
2021/08/01 01:56:53;;;;;;;14.74;9.17;;;;;;;33.97;32.78;98669.36;387330;106;1986080;-75
2021/08/01 01:58:09;;;;;;;12.15;8.64;;;;;;;34.07;32.64;98665.88;389478;104;1985868;-76
2021/08/01 01:59:34;;;;;;;20.41;8.81;;;;;;;33.94;32.61;98666.13;364642;107;1963056;-75
2021/08/01 02:00:40;;;;;;;13.52;8.96;;;;;;;34.00;32.59;98674.18;363698;109;1960898;-76
2021/08/01 02:01:52;;;;;;;14.43;8.56;;;;;;;34.03;32.70;98665.00;406815;101;1985987;-74
2021/08/01 02:02:59;;;;;;;13.93;9.12;;;;;;;33.85;32.88;98667.66;344805;105;2631031;-73
2021/08/01 02:04:11;;;;;;;13.61;8.57;;;;;;;34.06;32.77;98667.08;368565;111;1972970;-77
2021/08/01 02:05:23;;;;;;;14.35;8.52;;;;;;;34.11;32.67;98672.30;392340;104;1986018;-77
2021/08/01 02:06:59;;;;;;;13.88;9.57;;;;;;;34.00;32.65;98668.58;368937;107;1962958;-77
2021/08/01 02:08:12;;;;;;;14.69;9.33;;;;;;;34.15;32.49;98673.94;391178;104;1985942;-75
2021/08/01 02:09:49;;;;;;;13.07;9.02;;;;;;;34.05;32.52;98673.83;351148;105;1962006;-75
2021/08/01 02:11:16;;;;;;;12.68;8.54;;;;;;;33.98;32.63;98668.16;372860;107;1963057;-76
2021/08/01 02:12:37;;;;;;;14.22;9.01;;;;;;;34.07;32.66;98669.48;393854;104;1986038;-76
2021/08/01 02:13:52;;;;;;;12.44;8.40;;;;;;;33.88;32.78;98669.69;371373;109;1961964;-75
2021/08/01 02:15:08;;;;;;;13.64;8.47;;;;;;;33.97;32.98;98667.36;395472;104;1985999;-76
2021/08/01 02:16:14;;;;;;;16.81;9.41;;;;;;;33.87;32.87;98662.45;313319;107;2332998;-76
2021/08/01 02:17:33;;;;;;;14.39;9.91;;;;;;;33.98;32.94;98668.98;384364;106;2074067;-76
2021/08/01 02:18:42;;;;;;;13.08;9.48;;;;;;;33.81;33.03;98670.41;364053;109;1969954;-76
2021/08/01 02:20:08;;;;;;;14.99;8.54;;;;;;;33.86;32.97;98666.47;363865;111;1964976;-77
2021/08/01 02:21:20;;;;;;;12.98;8.27;;;;;;;33.87;33.00;98662.45;326484;109;2680781;-76
2021/08/01 02:22:34;;;;;;;14.20;8.67;;;;;;;33.91;33.16;98652.10;395376;104;1986016;-75
2021/08/01 02:23:44;;;;;;;12.88;8.21;;;;;;;33.82;33.13;98658.04;381514;105;1963045;-77
2021/08/01 02:24:59;;;;;;;14.29;8.39;;;;;;;33.92;33.24;98654.50;347446;104;2813995;-75
2021/08/01 02:26:06;;;;;;;14.97;8.90;;;;;;;33.81;33.42;98658.41;375344;107;1961932;-75
2021/08/01 02:27:20;;;;;;;13.78;8.09;;;;;;;34.01;33.21;98661.80;382936;106;1964877;-75
2021/08/01 02:28:29;;;;;;;14.31;9.39;;;;;;;33.87;33.30;98662.45;353937;113;1962021;-75
2021/08/01 02:29:42;;;;;;;14.44;9.53;;;;;;;33.88;33.33;98664.89;394228;104;1987029;-75
2021/08/01 02:30:51;;;;;;;14.38;9.41;;;;;;;33.80;33.32;98662.41;373132;107;1961851;-75
2021/08/01 02:32:07;;;;;;;14.47;8.32;;;;;;;33.95;33.37;98666.92;388342;106;1985991;-75
2021/08/01 02:33:26;;;;;;;11.72;8.58;;;;;;;33.92;33.29;98662.91;392782;104;1985924;-76
2021/08/01 02:34:30;;;;;;;14.44;9.59;;;;;;;33.74;33.38;98661.97;371431;105;1961885;-76
2021/08/01 02:35:37;;;;;;;12.95;9.77;;;;;;;33.71;33.57;98665.52;374686;105;1962029;-76
2021/08/01 02:36:51;;;;;;;12.03;8.16;;;;;;;33.80;33.60;98660.41;386671;106;1985912;-75
2021/08/01 02:38:00;;;;;;;12.43;8.39;;;;;;;33.71;33.47;98663.55;343990;109;2865015;-77
2021/08/01 02:39:07;;;;;;;11.41;7.96;;;;;;;33.70;33.51;98661.91;364129;111;1962032;-76
2021/08/01 02:40:14;;;;;;;12.11;8.22;;;;;;;33.65;33.69;98656.66;338762;112;1961999;-76
2021/08/01 02:41:30;;;;;;;15.66;9.18;;;;;;;33.80;33.71;98662.41;393454;104;1961865;-74
2021/08/01 02:42:36;;;;;;;12.58;8.86;;;;;;;33.67;33.92;98662.69;373030;107;1971014;-73
2021/08/01 02:43:44;;;;;;;17.66;9.14;;;;;;;33.69;33.78;98671.52;366432;109;1964078;-74
2021/08/01 02:45:00;;;;;;;12.46;8.72;;;;;;;33.85;33.74;98676.07;396822;104;1995029;-76
2021/08/01 02:46:06;;;;;;;15.49;9.22;;;;;;;33.92;33.62;98678.91;321415;108;2178907;-76
2021/08/01 02:47:17;;;;;;;14.71;9.83;;;;;;;34.05;33.35;98677.42;371146;107;1963067;-76
2021/08/01 02:48:34;;;;;;;14.39;9.33;;;;;;;34.15;33.42;98676.74;406179;101;1985948;-74
2021/08/01 02:49:47;;;;;;;12.90;8.67;;;;;;;34.24;33.44;98678.41;387231;104;2965077;-76
2021/08/01 02:51:12;;;;;;;13.43;8.46;;;;;;;34.18;33.29;98677.97;365911;108;1962041;-77
2021/08/01 02:52:31;;;;;;;14.71;9.17;;;;;;;34.18;33.56;98675.16;381416;108;1986993;-76
2021/08/01 02:53:47;;;;;;;13.32;9.22;;;;;;;34.08;33.70;98673.88;341695;106;2843050;-75
2021/08/01 02:55:03;;;;;;;15.97;8.83;;;;;;;34.10;33.76;98679.91;392520;103;1986039;-76
2021/08/01 02:56:31;;;;;;;17.18;10.48;;;;;;;34.06;33.68;98681.89;381288;105;1961961;-75
2021/08/01 02:57:39;;;;;;;14.24;9.54;;;;;;;34.28;33.31;98668.04;380971;105;1962064;-75
2021/08/01 02:58:53;;;;;;;15.63;8.81;;;;;;;34.62;33.00;98671.50;395892;106;1986081;-75
2021/08/01 03:00:07;;;;;;;13.32;9.07;;;;;;;34.55;33.14;98677.83;336530;108;2801017;-77
2021/08/01 03:01:32;;;;;;;15.59;8.94;;;;;;;34.46;33.11;98676.58;347818;112;2881990;-77
2021/08/01 03:02:48;;;;;;;12.59;8.61;;;;;;;34.64;33.08;98669.11;372954;109;1995136;-77
2021/08/01 03:03:55;;;;;;;13.60;8.38;;;;;;;34.57;33.02;98677.48;355392;112;1961993;-76
2021/08/01 03:05:21;;;;;;;14.53;8.51;;;;;;;34.47;33.14;98667.76;353570;112;1963006;-76
2021/08/01 03:06:35;;;;;;;11.44;9.26;;;;;;;34.75;32.91;98674.78;396987;101;1994835;-77
2021/08/01 03:07:48;;;;;;;17.06;9.69;;;;;;;34.82;32.97;98677.60;394784;104;1964044;-77
2021/08/01 03:09:12;;;;;;;16.92;8.94;;;;;;;34.78;32.98;98682.41;371694;107;1969950;-76
2021/08/01 03:10:20;;;;;;;14.84;10.07;;;;;;;34.66;33.08;98680.72;368922;107;1960701;-75
2021/08/01 03:11:34;;;;;;;13.28;9.04;;;;;;;34.76;33.08;98685.59;401360;103;1962020;-76
2021/08/01 03:12:49;;;;;;;15.87;8.94;;;;;;;34.72;33.14;98687.59;362592;106;2006025;-75
2021/08/01 03:14:14;;;;;;;15.80;8.82;;;;;;;34.54;33.24;98686.64;369151;108;1962073;-75
2021/08/01 03:15:26;;;;;;;17.88;8.72;;;;;;;34.60;33.39;98682.30;393853;104;1971937;-75
2021/08/01 03:16:33;;;;;;;12.12;8.98;;;;;;;34.48;33.47;98688.19;317443;107;2301951;-76
2021/08/01 03:17:39;;;;;;;19.53;9.77;;;;;;;34.47;33.58;98690.19;363874;107;1961880;-76
2021/08/01 03:18:51;;;;;;;13.51;9.07;;;;;;;34.58;33.66;98693.09;394584;104;1970929;-76
2021/08/01 03:19:58;;;;;;;16.29;9.35;;;;;;;34.43;33.55;98685.75;378683;107;1962023;-76
2021/08/01 03:21:10;;;;;;;15.85;9.67;;;;;;;34.49;33.57;98689.81;405784;101;1964997;-75
2021/08/01 03:22:17;;;;;;;18.44;9.48;;;;;;;34.37;33.57;98688.91;376823;103;1963029;-76
2021/08/01 03:23:23;;;;;;;14.34;9.02;;;;;;;34.35;33.62;98691.33;376352;106;1962003;-76
2021/08/01 03:24:35;;;;;;;14.81;9.46;;;;;;;34.47;33.60;98695.00;388075;104;2875963;-75
2021/08/01 03:25:47;;;;;;;13.67;9.10;;;;;;;34.47;33.80;98695.00;405435;101;1987003;-75
2021/08/01 03:27:11;;;;;;;14.84;9.32;;;;;;;34.39;33.72;98696.15;377540;105;2867017;-74
2021/08/01 03:28:23;;;;;;;13.56;9.64;;;;;;;34.67;33.40;98690.77;393972;103;1984969;-74
2021/08/01 03:29:29;;;;;;;13.43;9.89;;;;;;;34.58;33.35;98696.70;366653;110;1961003;-75
2021/08/01 03:30:55;;;;;;;16.17;11.47;;;;;;;34.60;33.33;98698.33;368980;109;1960886;-75
2021/08/01 03:32:08;;;;;;;18.83;12.31;;;;;;;34.77;33.22;98687.22;394027;101;2075915;-76
2021/08/01 03:33:15;;;;;;;15.61;10.88;;;;;;;34.67;33.20;98696.38;294836;109;2413720;-76
2021/08/01 03:34:27;;;;;;;17.38;11.79;;;;;;;34.77;33.21;98697.61;389591;101;2078758;-76
2021/08/01 03:35:32;;;;;;;15.85;10.08;;;;;;;34.71;33.22;98704.80;377665;106;1960867;-76
2021/08/01 03:36:57;;;;;;;16.81;10.62;;;;;;;34.72;33.22;98703.59;376659;106;1960782;-76
2021/08/01 03:38:09;;;;;;;14.93;10.11;;;;;;;34.87;33.17;98708.09;397957;104;1984820;-76
2021/08/01 03:39:35;;;;;;;16.89;11.15;;;;;;;34.76;33.24;98708.03;321343;105;2320923;-76
2021/08/01 03:40:51;;;;;;;16.74;9.97;;;;;;;34.99;33.07;98710.58;331818;105;2505965;-76
2021/08/01 03:42:04;;;;;;;15.12;10.08;;;;;;;35.08;33.01;98706.63;349270;106;2689936;-75
2021/08/01 03:43:28;;;;;;;18.31;11.36;;;;;;;35.01;32.91;98710.99;362104;109;1963981;-75
2021/08/01 03:44:40;;;;;;;17.59;11.52;;;;;;;35.13;32.90;98707.05;375301;108;2074016;-76
2021/08/01 03:45:46;;;;;;;16.71;11.66;;;;;;;34.71;33.41;98710.41;359466;110;1962022;-75
2021/08/01 03:46:52;;;;;;;17.56;10.98;;;;;;;34.63;33.54;98712.36;357935;112;1961965;-75
2021/08/01 03:48:05;;;;;;;15.76;10.56;;;;;;;34.69;33.72;98715.60;387296;104;1985961;-75
2021/08/01 03:49:11;;;;;;;13.32;9.59;;;;;;;34.64;33.53;98707.55;322989;110;2793957;-74
2021/08/01 03:50:17;;;;;;;16.69;10.71;;;;;;;34.66;33.52;98705.97;360708;110;1962034;-77
2021/08/01 03:51:23;;;;;;;16.99;11.06;;;;;;;34.67;33.53;98704.79;360023;109;1961896;-74
2021/08/01 03:52:28;;;;;;;14.52;10.27;;;;;;;34.76;33.46;98702.42;341982;109;1990125;-75
2021/08/01 03:53:40;;;;;;;15.16;10.37;;;;;;;34.85;33.48;98710.48;386101;106;2073990;-76
2021/08/01 03:54:53;;;;;;;14.03;9.63;;;;;;;34.81;33.54;98709.67;395404;104;1985926;-75
2021/08/01 03:56:16;;;;;;;14.49;9.45;;;;;;;34.69;33.53;98709.99;373714;107;1961942;-76
2021/08/01 03:57:22;;;;;;;14.27;9.33;;;;;;;34.76;33.45;98719.26;373607;107;1962012;-76
2021/08/01 03:58:27;;;;;;;12.23;8.64;;;;;;;34.78;33.34;98722.48;370025;108;1961983;-76
2021/08/01 03:59:40;;;;;;;12.48;8.89;;;;;;;34.83;33.44;98717.71;388736;106;1985847;-76
2021/08/01 04:00:48;;;;;;;13.07;9.88;;;;;;;34.69;33.45;98722.02;318462;110;2871961;-78
2021/08/01 04:02:01;;;;;;;14.79;9.29;;;;;;;34.89;33.44;98730.96;387908;106;1986996;-76
2021/08/01 04:03:07;;;;;;;11.88;8.86;;;;;;;34.83;33.32;98729.73;329897;108;2747036;-76
2021/08/01 04:04:13;;;;;;;13.09;9.76;;;;;;;34.84;33.47;98730.53;363097;110;1961981;-78
2021/08/01 04:05:25;;;;;;;14.14;9.61;;;;;;;35.01;33.51;98724.20;393034;104;1986041;-76
2021/08/01 04:06:32;;;;;;;13.82;9.25;;;;;;;34.97;33.28;98726.20;373418;107;1961970;-76
2021/08/01 04:07:38;;;;;;;13.92;9.36;;;;;;;34.92;33.39;98720.95;376914;107;1964043;-76
2021/08/01 04:08:50;;;;;;;13.74;10.42;;;;;;;35.09;33.39;98728.70;387869;104;2071060;-77
2021/08/01 04:09:55;;;;;;;14.87;9.86;;;;;;;34.96;33.42;98721.80;352365;108;1970025;-77
2021/08/01 04:11:07;;;;;;;12.37;9.63;;;;;;;35.02;33.53;98726.63;395262;104;1986960;-76
2021/08/01 04:12:13;;;;;;;13.97;9.56;;;;;;;34.95;33.45;98725.78;376076;106;1963983;-77
2021/08/01 04:13:37;;;;;;;11.71;8.99;;;;;;;34.99;33.50;98723.81;290960;111;2417875;-77
2021/08/01 04:14:49;;;;;;;14.79;9.46;;;;;;;35.14;33.49;98722.69;396118;103;1961947;-78
2021/08/01 04:15:55;;;;;;;17.92;10.77;;;;;;;35.14;33.26;98727.50;375377;107;1968999;-77
2021/08/01 04:17:09;;;;;;;13.37;9.79;;;;;;;35.40;33.06;98735.63;387404;106;1985994;-77
2021/08/01 04:18:21;;;;;;;16.37;10.61;;;;;;;35.36;33.23;98728.42;376673;108;1985968;-76
2021/08/01 04:19:26;;;;;;;14.88;10.30;;;;;;;35.17;33.24;98732.33;360485;111;1962041;-74
2021/08/01 04:20:38;;;;;;;14.58;9.13;;;;;;;35.29;33.22;98728.37;396432;104;1985858;-76
2021/08/01 04:21:45;;;;;;;15.25;9.89;;;;;;;35.20;33.25;98728.75;382217;105;1962053;-76
2021/08/01 04:23:10;;;;;;;15.47;9.84;;;;;;;35.24;33.22;98726.75;375400;105;1961988;-74
2021/08/01 04:24:16;;;;;;;13.09;9.67;;;;;;;35.27;33.12;98727.96;327546;107;2194911;-75
2021/08/01 04:25:28;;;;;;;15.52;10.73;;;;;;;35.31;33.32;98723.98;397629;104;2074965;-76
2021/08/01 04:26:38;;;;;;;13.71;9.42;;;;;;;35.15;33.39;98721.51;374205;105;2854965;-75
2021/08/01 04:27:53;;;;;;;14.05;11.19;;;;;;;35.33;33.41;98721.59;392612;103;1995071;-77
2021/08/01 04:29:05;;;;;;;13.18;9.87;;;;;;;35.29;33.43;98720.75;395087;104;1986022;-77
2021/08/01 04:30:29;;;;;;;13.80;9.73;;;;;;;35.13;33.37;98723.89;353498;107;1960944;-76
2021/08/01 04:31:42;;;;;;;18.79;10.92;;;;;;;35.14;33.66;98725.49;394970;104;1961902;-76
2021/08/01 04:32:47;;;;;;;16.33;10.44;;;;;;;35.03;33.70;98728.22;375540;107;1969957;-76
2021/08/01 04:34:11;;;;;;;18.52;10.71;;;;;;;35.03;33.62;98724.61;355835;107;1961858;-77
2021/08/01 04:35:23;;;;;;;16.56;10.37;;;;;;;35.16;33.76;98725.11;396240;104;1962935;-75
2021/08/01 04:36:29;;;;;;;20.76;10.76;;;;;;;35.11;33.61;98726.28;375417;107;1969033;-75
2021/08/01 04:37:42;;;;;;;13.23;9.82;;;;;;;35.29;33.45;98717.15;337355;106;2888877;-77
2021/08/01 04:38:47;;;;;;;13.81;9.87;;;;;;;35.18;33.36;98729.13;327069;110;2091026;-75
2021/08/01 04:40:00;;;;;;;15.79;10.71;;;;;;;35.33;33.43;98727.20;383235;106;2071964;-78
2021/08/01 04:41:06;;;;;;;12.78;10.41;;;;;;;35.18;33.63;98717.91;367770;109;1962073;-76
2021/08/01 04:42:30;;;;;;;15.64;10.23;;;;;;;35.18;33.42;98723.52;365307;108;1962027;-74
2021/08/01 04:43:43;;;;;;;14.17;10.90;;;;;;;35.33;33.38;98724.39;395506;104;2071986;-76
2021/08/01 04:44:49;;;;;;;14.48;10.43;;;;;;;35.18;33.45;98725.53;383130;105;1961895;-74
2021/08/01 04:46:02;;;;;;;15.80;10.48;;;;;;;35.36;33.43;98719.99;389328;106;1972911;-75
2021/08/01 04:47:07;;;;;;;13.99;10.74;;;;;;;35.19;33.42;98725.11;376180;107;1961964;-75
2021/08/01 04:48:32;;;;;;;13.82;10.37;;;;;;;35.22;33.44;98735.58;294233;110;2425925;-77
2021/08/01 04:49:44;;;;;;;17.57;10.01;;;;;;;35.33;33.42;98721.59;395266;104;1961013;-76
2021/08/01 04:50:51;;;;;;;15.16;10.86;;;;;;;35.21;33.45;98728.34;376541;107;1969033;-77
2021/08/01 04:51:57;;;;;;;14.41;10.03;;;;;;;35.16;33.47;98731.52;365866;106;2874920;-75
2021/08/01 04:53:10;;;;;;;15.54;11.69;;;;;;;35.23;33.50;98731.56;394401;104;2080859;-77
2021/08/01 04:54:15;;;;;;;15.04;10.35;;;;;;;35.05;33.73;98729.84;369670;109;1962071;-75
2021/08/01 04:55:27;;;;;;;18.39;11.05;;;;;;;35.17;33.71;98729.52;404818;101;1985944;-75
2021/08/01 04:56:35;;;;;;;13.98;10.29;;;;;;;35.06;33.73;98734.25;365754;103;1961919;-75
2021/08/01 04:58:04;;;;;;;20.58;10.88;;;;;;;35.08;33.71;98731.89;380586;105;1962035;-76
2021/08/01 04:59:17;;;;;;;15.53;11.02;;;;;;;35.18;33.82;98733.95;347552;106;2155007;-75
2021/08/01 05:00:24;;;;;;;18.86;11.53;;;;;;;35.06;33.78;98737.05;367003;110;1963944;-75
2021/08/01 05:01:37;;;;;;;16.84;11.04;;;;;;;35.14;33.86;98727.50;332448;104;2472184;-75
2021/08/01 05:02:43;;;;;;;13.77;10.65;;;;;;;35.05;33.88;98719.42;374750;106;1962006;-74
2021/08/01 05:03:55;;;;;;;16.91;11.46;;;;;;;35.26;33.79;98724.36;394236;104;2072005;-75
2021/08/01 05:05:02;;;;;;;18.28;10.57;;;;;;;35.13;33.86;98721.09;379510;105;1969863;-76
2021/08/01 05:06:25;;;;;;;18.23;11.69;;;;;;;35.19;33.79;98725.11;378714;105;1962082;-77
2021/08/01 05:07:39;;;;;;;16.81;12.13;;;;;;;35.28;33.91;98727.58;382603;106;2072041;-76
2021/08/01 05:08:45;;;;;;;23.43;13.18;;;;;;;35.24;33.90;98718.33;319462;109;2854051;-75
2021/08/01 05:09:51;;;;;;;19.05;11.65;;;;;;;35.29;33.89;98722.77;321606;112;2148733;-75
2021/08/01 05:10:57;;;;;;;17.96;12.49;;;;;;;35.30;33.93;98713.92;361255;111;1965016;-75
2021/08/01 05:12:09;;;;;;;16.43;11.13;;;;;;;35.46;33.92;98724.81;384250;106;1964102;-76
2021/08/01 05:13:22;;;;;;;20.78;11.57;;;;;;;35.49;33.92;98715.63;345916;106;2578024;-76
2021/08/01 05:14:46;;;;;;;16.23;11.01;;;;;;;35.45;33.88;98724.02;363557;107;1961966;-76
2021/08/01 05:15:58;;;;;;;22.04;11.87;;;;;;;35.67;33.68;98715.67;330672;106;2528946;-76
2021/08/01 05:17:05;;;;;;;16.75;11.12;;;;;;;35.58;33.65;98718.08;348660;107;1962074;-76
2021/08/01 05:18:17;;;;;;;15.01;10.57;;;;;;;35.76;33.49;98712.50;399703;104;1965005;-76
2021/08/01 05:19:22;;;;;;;14.37;10.76;;;;;;;35.76;33.37;98713.30;380008;105;1961939;-76
2021/08/01 05:20:40;;;;;;;14.89;11.22;;;;;;;35.99;33.14;98712.11;365796;106;2011959;-75
2021/08/01 05:21:46;;;;;;;17.76;11.77;;;;;;;35.92;33.07;98712.92;344418;109;1961913;-75
2021/08/01 05:23:11;;;;;;;15.48;11.06;;;;;;;35.96;32.98;98716.52;366073;109;1963120;-75
2021/08/01 05:24:23;;;;;;;16.74;11.61;;;;;;;36.17;32.77;98704.52;397123;104;1987009;-76
2021/08/01 05:25:28;;;;;;;16.96;11.29;;;;;;;36.08;32.71;98709.75;372378;107;1961975;-77
2021/08/01 05:26:35;;;;;;;16.41;10.42;;;;;;;36.15;32.56;98704.14;375556;107;1962017;-75
2021/08/01 05:27:47;;;;;;;15.18;10.55;;;;;;;36.29;32.48;98706.14;390660;104;1962952;-75
2021/08/01 05:28:53;;;;;;;17.51;11.42;;;;;;;36.15;32.52;98700.50;369976;109;1968909;-74
2021/08/01 05:30:05;;;;;;;19.81;12.12;;;;;;;36.25;32.58;98700.50;382912;106;2073958;-77
2021/08/01 05:31:11;;;;;;;14.25;10.63;;;;;;;36.16;32.60;98702.12;365999;109;1969945;-77
2021/08/01 05:32:34;;;;;;;13.99;10.22;;;;;;;36.25;32.46;98713.77;366399;107;1960673;-75